Thunder radar more information blitzortung!


Radar de pluja more information rain snow radar


Visita la nostra xarxa de llocs de meteo:

Template documentation
and downloads

And another site



No particular awareness of the weather is required.    There are no Weather-warnings

Pagina Historial Weather Underground text

Diari Resum Setembre 2, 2017 Unitats:  Mètric    Imperial   Tant
« Previous Dia
SegĂźent Dia »
Diari Setmana Mensual Anual Personalitzada
  Maxima: Minima: Media:
Temperatura: -17.8 °C -9.8 °C -5.3 °C
Punt de rosada: -17.8 °C -14.6 °C -12.9 °C
Humitat: Humidity % 23 % 44 %
Wind Speed: 0 km/h 0 km/h 11.6 km/h
RĂ fegues de vent: 0 km/h - -
Vent:- - SSE
Pression baro: 0 hPa 34361.1 hPa -
Precipitacions: 0 mm    
Historical Graphs
 
 
Dades de taula per Setembre 2, 2017
Temps Temperatura Punt de rosada Pression baro Vent Wind Speed RĂ fegues de vent Humitat Rainfall Rate (Hourly)
-17.8 °C -17.8 °C 0 hPa Calm     Humidity % 0 mm
00:00 -8.6 °C -13.2 °C 34462.7 hPa WSW 5.1 km/h 7.7 km/h 58 % 0 mm
00:02 -5.9 °C -9.6 °C 34428.8 hPa ESE 6.3 km/h 8.5 km/h 66 % 0 mm
00:10 -8.6 °C -13.2 °C 34462.7 hPa Calm   2.6 km/h 58 % 0 mm
00:20 -8.7 °C -13.3 °C 34462.7 hPa WSW 2.6 km/h 5.1 km/h 58 % 0 mm
00:30 -8.8 °C -13.4 °C 34462.7 hPa Calm     58 % 0 mm
00:40 -8.8 °C -13.3 °C 34462.7 hPa SW 2.6 km/h 2.6 km/h 59 % 0 mm
00:50 -8.9 °C -13.3 °C 34462.7 hPa WSW 2.6 km/h 5.1 km/h 59 % 0 mm
01:00 -8.9 °C -13.3 °C 34462.7 hPa WSW 5.1 km/h 5.1 km/h 59 % 0 mm
01:10 -9 °C -13.4 °C 34462.7 hPa Calm   5.1 km/h 59 % 0 mm
01:20 -9 °C -13.4 °C 34462.7 hPa Calm     59 % 0 mm
01:30 -9.1 °C -13.6 °C 34496.6 hPa SE 2.6 km/h 5.1 km/h 59 % 0 mm
01:40 -9.2 °C -13.7 °C 34496.6 hPa SW 2.6 km/h 5.1 km/h 59 % 0 mm
01:50 -9.2 °C -13.5 °C 34462.7 hPa Calm   7.7 km/h 60 % 0 mm
02:00 -9.3 °C -13.6 °C 34462.7 hPa WSW 2.6 km/h 5.1 km/h 60 % 0 mm
02:10 -9.4 °C -13.7 °C 34462.7 hPa WSW 2.6 km/h 5.1 km/h 60 % 0 mm
02:20 -9.4 °C -13.7 °C 34462.7 hPa Calm   5.1 km/h 60 % 0 mm
02:30 -9.4 °C -13.6 °C 34462.7 hPa Calm   7.7 km/h 61 % 0 mm
02:40 -9.5 °C -13.7 °C 34462.7 hPa WSW 5.1 km/h 5.1 km/h 61 % 0 mm
02:50 -9.5 °C -13.7 °C 34462.7 hPa WSW 5.1 km/h 7.7 km/h 61 % 0 mm
03:00 -9.6 °C -13.7 °C 34428.8 hPa West 2.6 km/h 2.6 km/h 61 % 0 mm
03:10 -9.7 °C -13.8 °C 34428.8 hPa SW 2.6 km/h 5.1 km/h 61 % 0 mm
03:20 -9.8 °C -13.9 °C 34428.8 hPa SW 2.6 km/h 5.1 km/h 61 % 0 mm
03:30 -9.8 °C -13.8 °C 34462.7 hPa Calm   2.6 km/h 62 % 0 mm
03:40 -9.8 °C -13.8 °C 34462.7 hPa West 2.6 km/h 2.6 km/h 62 % 0 mm
03:50 -9.7 °C -13.6 °C 34462.7 hPa West 2.6 km/h 5.1 km/h 63 % 0 mm
04:00 -9.6 °C -13.6 °C 34462.7 hPa WSW 2.6 km/h 5.1 km/h 62 % 0 mm
04:10 -9.4 °C -13.4 °C 34462.7 hPa Calm   2.6 km/h 62 % 0 mm
04:20 -8.9 °C -12.9 °C 34496.6 hPa SW 2.6 km/h 5.1 km/h 62 % 0 mm
04:30 -9 °C -13.2 °C 34496.6 hPa WSW 2.6 km/h 7.7 km/h 61 % 0 mm
04:40 -8.6 °C -12.8 °C 34496.6 hPa WSW 2.6 km/h 2.6 km/h 61 % 0 mm
04:50 -8.4 °C -12.7 °C 34496.6 hPa NW 2.6 km/h 7.7 km/h 60 % 0 mm
05:00 -8.3 °C -12.9 °C 34496.6 hPa NNE 7.7 km/h 10.3 km/h 58 % 0 mm
05:10 -8.2 °C -12.9 °C 34496.6 hPa ENE 2.6 km/h 7.7 km/h 58 % 0 mm
05:20 -8.1 °C -12.7 °C 34496.6 hPa ENE 5.1 km/h 5.1 km/h 58 % 0 mm
05:30 -7.8 °C -12.6 °C 34496.6 hPa ENE 2.6 km/h 7.7 km/h 57 % 0 mm
05:40 -7.7 °C -12.7 °C 34496.6 hPa ENE 7.7 km/h 7.7 km/h 56 % 0 mm
05:50 -7.6 °C -12.6 °C 34496.6 hPa Calm   10.3 km/h 56 % 0 mm
06:00 -6.9 °C -12.2 °C 34533.8 hPa SE 2.6 km/h 2.6 km/h 54 % 0 mm
06:10 -7.3 °C -12.6 °C 34533.8 hPa East 7.7 km/h 10.3 km/h 54 % 0 mm
06:20 -7.1 °C -12.5 °C 34533.8 hPa NE 2.6 km/h 7.7 km/h 53 % 0 mm
11:23 -5.4 °C -11.7 °C 34533.8 hPa ENE 6 km/h 6.8 km/h 49 % 0 mm
11:24 -5.4 °C -11.7 °C 34533.8 hPa ENE 6 km/h 6.8 km/h 49 % 0 mm
11:25 -5.5 °C -11.9 °C 34533.8 hPa ENE 9 km/h 9 km/h 48 % 0 mm
11:30 -5.4 °C -11.8 °C 34533.8 hPa ESE 9 km/h 9 km/h 48 % 0 mm
11:35 -5.6 °C -11.9 °C 34533.8 hPa ENE 15 km/h 15 km/h 48 % 0 mm
11:40 -5.8 °C -12.2 °C 34533.8 hPa East 11.9 km/h 11.9 km/h 48 % 0 mm
11:45 -5.4 °C -11.8 °C 34533.8 hPa SSW 6 km/h 6 km/h 48 % 0 mm
11:50 -5.3 °C -12.1 °C 34533.8 hPa ESE 11.9 km/h 11.9 km/h 46 % 0 mm
11:55 -5.2 °C -11.9 °C 34533.8 hPa East 9 km/h 9 km/h 46 % 0 mm
12:00 -4.9 °C -11.7 °C 34533.8 hPa NW 9 km/h 9 km/h 46 % 0 mm
12:05 -4.6 °C -11.6 °C 34533.8 hPa South 9 km/h 9 km/h 45 % 0 mm
12:10 -4.8 °C -11.8 °C 34533.8 hPa SW 9 km/h 9 km/h 45 % 0 mm
12:15 -4.6 °C -11.6 °C 34533.8 hPa NE 9 km/h 9 km/h 45 % 0 mm
12:20 -4.3 °C -11.7 °C 34533.8 hPa East 9.3 km/h 9.3 km/h 43 % 0 mm
12:25 -4.9 °C -12.3 °C 34533.8 hPa NE 11.9 km/h 11.9 km/h 43 % 0 mm
12:30 -4.8 °C -12.2 °C 34533.8 hPa ENE 15 km/h 15 km/h 43 % 0 mm
12:35 -4.7 °C -12.1 °C 34533.8 hPa South 6 km/h 6 km/h 43 % 0 mm
12:40 -4.2 °C -11.8 °C 34496.6 hPa SSW 20.3 km/h 20.3 km/h 42 % 0 mm
12:45 -4 °C -11.7 °C 34496.6 hPa WSW 15 km/h 15 km/h 42 % 0 mm
12:50 -3.6 °C -11.5 °C 34496.6 hPa NW 7.6 km/h 7.6 km/h 41 % 0 mm
12:55 -3.6 °C -11.4 °C 34462.7 hPa NNW 9 km/h 9 km/h 41 % 0 mm
13:00 -3.8 °C -11.9 °C 34462.7 hPa NE 11.9 km/h 11.9 km/h 40 % 0 mm
13:05 -3.6 °C -11.7 °C 34462.7 hPa NNW 9.8 km/h 9.8 km/h 40 % 0 mm
13:10 -3.4 °C -12.2 °C 34462.7 hPa South 6 km/h 6 km/h 37 % 0 mm
13:15 -3.3 °C -11.8 °C 34462.7 hPa NNW 10.3 km/h 10.3 km/h 38 % 0 mm
13:20 -3.2 °C -12.2 °C 34462.7 hPa West 15 km/h 15 km/h 36 % 0 mm
13:25 -3.1 °C -12.4 °C 34462.7 hPa ESE 12.7 km/h 12.7 km/h 35 % 0 mm
13:30 -3.1 °C -13.1 °C 34462.7 hPa WNW 9 km/h 9 km/h 32 % 0 mm
13:35 -3.1 °C -13.3 °C 34462.7 hPa SW 15.3 km/h 15.3 km/h 31 % 0 mm
13:40 -3.2 °C -13.5 °C 34462.7 hPa West 20.9 km/h 20.9 km/h 31 % 0 mm
13:45 -3 °C -13 °C 34462.7 hPa SW 11.9 km/h 11.9 km/h 32 % 0 mm
13:50 -3 °C -13.3 °C 34462.7 hPa WSW 17.9 km/h 17.9 km/h 31 % 0 mm
13:55 -2.8 °C -13.4 °C 34462.7 hPa West 9 km/h 9.8 km/h 30 % 0 mm
14:00 -2.9 °C -13.7 °C 34462.7 hPa NW 20.9 km/h 20.9 km/h 29 % 0 mm
14:05 -2.8 °C -13.7 °C 34462.7 hPa South 9 km/h 9 km/h 29 % 0 mm
14:10 -2.6 °C -13.5 °C 34462.7 hPa West 17.9 km/h 17.9 km/h 29 % 0 mm
14:15 -2.6 °C -13.5 °C 34462.7 hPa WSW 20.9 km/h 20.9 km/h 29 % 0 mm
14:20 -2.5 °C -13.7 °C 34462.7 hPa West 6 km/h 6.3 km/h 28 % 0 mm
14:25 -2.4 °C -13.3 °C 34462.7 hPa WSW 16.6 km/h 16.6 km/h 29 % 0 mm
14:30 -2.5 °C -13.7 °C 34462.7 hPa SW 15 km/h 15 km/h 28 % 0 mm
14:35 -2.3 °C -13.6 °C 34462.7 hPa WSW 20.9 km/h 20.9 km/h 28 % 0 mm
14:40 -2.2 °C -13.4 °C 34428.8 hPa WSW 15.6 km/h 15.6 km/h 28 % 0 mm
14:45 -2.3 °C -13.5 °C 34428.8 hPa WSW 23.8 km/h 23.8 km/h 28 % 0 mm
14:50 -2.3 °C -13.8 °C 34428.8 hPa West 23.3 km/h 23.3 km/h 27 % 0 mm
14:55 -2.3 °C -13.8 °C 34428.8 hPa SSW 20.9 km/h 20.9 km/h 27 % 0 mm
15:00 -2.4 °C -13.9 °C 34428.8 hPa West 16.1 km/h 16.1 km/h 27 % 0 mm
15:05 -2.2 °C -13.7 °C 34428.8 hPa WSW 9.8 km/h 9.8 km/h 27 % 0 mm
15:10 -2.2 °C -13.7 °C 34428.8 hPa West 20.9 km/h 20.9 km/h 27 % 0 mm
15:15 -2.3 °C -13.8 °C 34428.8 hPa WSW 11.9 km/h 11.9 km/h 27 % 0 mm
15:20 -2.3 °C -13.8 °C 34428.8 hPa SW 11.9 km/h 11.9 km/h 27 % 0 mm
15:25 -2.3 °C -13.8 °C 34428.8 hPa WSW 20.9 km/h 20.9 km/h 27 % 0 mm
15:30 -2.4 °C -14.2 °C 34428.8 hPa SW 20.9 km/h 20.9 km/h 26 % 0 mm
15:35 -2.3 °C -14.1 °C 34428.8 hPa SW 15 km/h 15 km/h 26 % 0 mm
15:40 -2.1 °C -13.9 °C 34395 hPa SW 15 km/h 15 km/h 26 % 0 mm
15:45 -2.2 °C -14.4 °C 34395 hPa West 20.9 km/h 20.9 km/h 25 % 0 mm
15:50 -2.2 °C -14.3 °C 34395 hPa SW 29.8 km/h 29.8 km/h 25 % 0 mm
15:55 -2.1 °C -14.2 °C 34395 hPa SSW 17.9 km/h 17.9 km/h 25 % 0 mm
16:00 -1.9 °C -14.1 °C 34395 hPa SW 23.8 km/h 23.8 km/h 25 % 0 mm
16:05 -1.9 °C -14.1 °C 34395 hPa WSW 24.3 km/h 24.3 km/h 25 % 0 mm
16:10 -1.9 °C -14.1 °C 34395 hPa SW 11.9 km/h 11.9 km/h 25 % 0 mm
16:15 -1.9 °C -14.1 °C 34395 hPa NNW 9.3 km/h 9.3 km/h 25 % 0 mm
16:20 -1.8 °C -14.3 °C 34395 hPa WNW 15 km/h 15 km/h 24 % 0 mm
16:25 -1.7 °C -14.2 °C 34395 hPa West 9 km/h 9 km/h 24 % 0 mm
16:30 -1.8 °C -14.4 °C 34395 hPa SSE 23.8 km/h 23.8 km/h 24 % 0 mm
16:35 -1.8 °C -14.3 °C 34395 hPa WNW 9 km/h 9 km/h 24 % 0 mm
16:40 -1.7 °C -14.2 °C 34395 hPa SW 17.9 km/h 17.9 km/h 24 % 0 mm
16:45 -1.3 °C -13.9 °C 34395 hPa SSE 9 km/h 9 km/h 24 % 0 mm
16:50 -1.3 °C -13.9 °C 34395 hPa SSW 15 km/h 15 km/h 24 % 0 mm
16:55 -1.3 °C -13.9 °C 34395 hPa SW 20.9 km/h 20.9 km/h 24 % 0 mm
17:00 -1.4 °C -14 °C 34395 hPa West 20.9 km/h 20.9 km/h 24 % 0 mm
17:05 -1.4 °C -14 °C 34395 hPa SSW 20.9 km/h 20.9 km/h 24 % 0 mm
17:10 -1.6 °C -14.5 °C 34395 hPa SW 25.4 km/h 25.4 km/h 23 % 0 mm
17:15 -1.7 °C -14.3 °C 34395 hPa West 23.8 km/h 23.8 km/h 24 % 0 mm
17:20 -1.4 °C -14.4 °C 34395 hPa SSW 11.9 km/h 11.9 km/h 23 % 0 mm
17:25 -1.2 °C -13.8 °C 34361.1 hPa South 15.3 km/h 15.3 km/h 24 % 0 mm
17:30 -1.4 °C -14.4 °C 34361.1 hPa West 20.9 km/h 20.9 km/h 23 % 0 mm
17:35 -1.4 °C -14.4 °C 34361.1 hPa WSW 11.9 km/h 11.9 km/h 23 % 0 mm
17:40 -1.4 °C -14.4 °C 34395 hPa SSW 15 km/h 15 km/h 23 % 0 mm
17:45 -1.4 °C -14.3 °C 34395 hPa SW 20.9 km/h 20.9 km/h 23 % 0 mm
17:50 -1.4 °C -14.4 °C 34395 hPa WSW 15 km/h 15 km/h 23 % 0 mm
17:55 -1.5 °C -14.4 °C 34361.1 hPa SSW 20.9 km/h 20.9 km/h 23 % 0 mm
18:00 -1.6 °C -14.6 °C 34361.1 hPa West 20.9 km/h 20.9 km/h 23 % 0 mm
18:05 -1.5 °C -14.4 °C 34361.1 hPa WNW 11.9 km/h 11.9 km/h 23 % 0 mm
18:10 -1.6 °C -14.5 °C 34361.1 hPa SW 9 km/h 9 km/h 23 % 0 mm
18:15 -1.7 °C -14.6 °C 34361.1 hPa SW 20.9 km/h 20.9 km/h 23 % 0 mm
18:20 -1.7 °C -14.3 °C 34361.1 hPa West 17.9 km/h 17.9 km/h 24 % 0 mm
18:25 -1.7 °C -14.3 °C 34361.1 hPa WSW 15 km/h 15 km/h 24 % 0 mm
18:30 -1.8 °C -14.4 °C 34361.1 hPa SSW 20.9 km/h 20.9 km/h 24 % 0 mm
18:35 -2.2 °C -14.3 °C 34361.1 hPa SW 23.8 km/h 23.8 km/h 25 % 0 mm
18:40 -2.4 °C -14.2 °C 34361.1 hPa WSW 16.6 km/h 16.6 km/h 26 % 0 mm
18:45 -2.5 °C -14 °C 34361.1 hPa SW 20.9 km/h 20.9 km/h 27 % 0 mm
18:50 -2.6 °C -14.1 °C 34361.1 hPa SSW 9 km/h 9 km/h 27 % 0 mm
18:55 -2.7 °C -14.1 °C 34395 hPa SW 15 km/h 15 km/h 27 % 0 mm
19:00 -3.1 °C -14.2 °C 34395 hPa SSW 9 km/h 10.3 km/h 28 % 0 mm
19:05 -3.3 °C -14.1 °C 34395 hPa SSW 20.9 km/h 20.9 km/h 29 % 0 mm
19:10 -3.4 °C -14.2 °C 34428.8 hPa South 29.8 km/h 29.8 km/h 29 % 0 mm
19:15 -3.6 °C -14.3 °C 34428.8 hPa South 9 km/h 9 km/h 29 % 0 mm
19:16 -3.6 °C -14.3 °C 34428.8 hPa SW 9.3 km/h 9.3 km/h 29 % 0 mm
19:21 -3.6 °C -14.3 °C 34428.8 hPa East 7.6 km/h 7.6 km/h 29 % 0 mm
19:25 -6.8 °C -11.6 °C 34462.7 hPa NNE 7.7 km/h 10.3 km/h 58 % 0 mm
19:26 -3.7 °C -14.2 °C 34395 hPa ESE 15 km/h 15 km/h 30 % 0 mm
19:31 -3.8 °C -14.3 °C 34395 hPa East 15.3 km/h 15.3 km/h 30 % 0 mm
19:35 -6.8 °C -11.3 °C 34462.7 hPa NNE 7.7 km/h 10.3 km/h 59 % 0 mm
19:36 -4 °C -13.9 °C 34395 hPa SE 9 km/h 9 km/h 32 % 0 mm
19:41 -4.2 °C -14.1 °C 34361.1 hPa ESE 17.9 km/h 17.9 km/h 32 % 0 mm
19:45 -6.8 °C -11.4 °C 34496.6 hPa NNE 7.7 km/h 10.3 km/h 59 % 0 mm
19:46 -4.3 °C -13.9 °C 34361.1 hPa ENE 26.9 km/h 26.9 km/h 33 % 0 mm
19:51 -4.5 °C -13.4 °C 34361.1 hPa ENE 25.1 km/h 25.1 km/h 36 % 0 mm
19:55 -6.9 °C -11.4 °C 34496.6 hPa NNE 7.7 km/h 10.3 km/h 59 % 0 mm
19:56 -4.6 °C -13.2 °C 34395 hPa ESE 23.8 km/h 23.8 km/h 37 % 0 mm
20:01 -4.6 °C -13 °C 34395 hPa ENE 23.8 km/h 23.8 km/h 38 % 0 mm
20:05 -6.9 °C -11.4 °C 34496.6 hPa NNE 5.1 km/h 12.9 km/h 59 % 0 mm
20:06 -4.7 °C -13.2 °C 34395 hPa East 15 km/h 15 km/h 38 % 0 mm
20:11 -4.8 °C -13 °C 34395 hPa NNE 32.8 km/h 32.8 km/h 39 % 0 mm
20:15 -6.9 °C -11.4 °C 34462.7 hPa NNE 5.1 km/h 10.3 km/h 59 % 0 mm
20:16 -4.9 °C -12.9 °C 34395 hPa NE 12.7 km/h 12.7 km/h 40 % 0 mm
20:21 -5 °C -12.9 °C 34395 hPa East 17.9 km/h 17.9 km/h 40 % 0 mm
20:25 -7 °C -11.4 °C 34496.6 hPa NNE 2.6 km/h 7.7 km/h 60 % 0 mm
20:26 -5.1 °C -12.8 °C 34428.8 hPa ENE 17.9 km/h 17.9 km/h 41 % 0 mm
20:31 -5.1 °C -12.9 °C 34428.8 hPa ESE 15 km/h 15 km/h 41 % 0 mm
20:35 -7.1 °C -11.6 °C 34496.6 hPa NNE 2.6 km/h 7.7 km/h 60 % 0 mm
20:36 -5.2 °C -12.7 °C 34428.8 hPa ENE 26.9 km/h 26.9 km/h 42 % 0 mm
20:41 -5.2 °C -12.6 °C 34428.8 hPa ESE 15.3 km/h 15.3 km/h 43 % 0 mm
20:45 -7.2 °C -11.4 °C 34496.6 hPa Calm     61 % 0 mm
20:46 -5.3 °C -12.6 °C 34428.8 hPa NE 17.9 km/h 17.9 km/h 43 % 0 mm
20:51 -5.4 °C -12.6 °C 34428.8 hPa ENE 17.9 km/h 17.9 km/h 44 % 0 mm
20:55 -7.2 °C -11.4 °C 34462.7 hPa NNE 5.1 km/h 5.1 km/h 61 % 0 mm
20:56 -5.5 °C -12.4 °C 34462.7 hPa ENE 11.9 km/h 11.9 km/h 45 % 0 mm
21:01 -5.6 °C -12.5 °C 34462.7 hPa NE 11.9 km/h 11.9 km/h 45 % 0 mm
21:05 -7.2 °C -11.4 °C 34462.7 hPa NNE 7.7 km/h 7.7 km/h 61 % 0 mm
21:06 -5.7 °C -12.2 °C 34462.7 hPa NNE 15 km/h 15 km/h 47 % 0 mm
21:11 -5.7 °C -12.3 °C 34462.7 hPa NE 9.3 km/h 9.3 km/h 47 % 0 mm
21:15 -7.2 °C -11.5 °C 34462.7 hPa NNE 5.1 km/h 7.7 km/h 61 % 0 mm
21:16 -5.8 °C -12.3 °C 34462.7 hPa East 15 km/h 15 km/h 47 % 0 mm
21:21 -5.9 °C -12.3 °C 34462.7 hPa NNE 15 km/h 15 km/h 48 % 0 mm
21:25 -7.4 °C -11.4 °C 34462.7 hPa NNE 2.6 km/h 5.1 km/h 63 % 0 mm
21:26 -5.9 °C -12.3 °C 34462.7 hPa ENE 20.9 km/h 20.9 km/h 48 % 0 mm
21:31 -6 °C -12.4 °C 34462.7 hPa NNE 15 km/h 15 km/h 48 % 0 mm
21:35 -7.5 °C -11.5 °C 34462.7 hPa Calm   5.1 km/h 63 % 0 mm
21:36 -6.1 °C -12.4 °C 34462.7 hPa NNE 15 km/h 15 km/h 48 % 0 mm
21:41 -6.2 °C -12.3 °C 34462.7 hPa NNE 19.2 km/h 19.2 km/h 49 % 0 mm
21:45 -7.6 °C -11.6 °C 34462.7 hPa NNE 5.1 km/h 7.7 km/h 63 % 0 mm
21:46 -6.2 °C -12.2 °C 34462.7 hPa ENE 15 km/h 15 km/h 50 % 0 mm
21:51 -6.2 °C -12.2 °C 34462.7 hPa NE 23.3 km/h 23.3 km/h 50 % 0 mm
21:55 -7.6 °C -11.6 °C 34462.7 hPa NNE 2.6 km/h 5.1 km/h 63 % 0 mm
21:56 -6.3 °C -12.3 °C 34496.6 hPa ENE 17.9 km/h 17.9 km/h 50 % 0 mm
22:01 -6.3 °C -12.3 °C 34496.6 hPa NNE 15 km/h 15 km/h 50 % 0 mm
22:05 -7.7 °C -11.6 °C 34462.7 hPa NE 2.6 km/h 7.7 km/h 63 % 0 mm
22:06 -6.3 °C -12.2 °C 34496.6 hPa NE 15 km/h 15 km/h 51 % 0 mm
22:11 -6.4 °C -12.2 °C 34462.7 hPa ENE 15 km/h 15 km/h 51 % 0 mm
22:15 -7.8 °C -11.8 °C 34462.7 hPa NNE 2.6 km/h 10.3 km/h 63 % 0 mm
22:16 -6.4 °C -12.2 °C 34462.7 hPa NE 11.9 km/h 11.9 km/h 51 % 0 mm
22:21 -6.4 °C -12.3 °C 34462.7 hPa NNE 15 km/h 15 km/h 51 % 0 mm
22:25 -7.9 °C -11.8 °C 34462.7 hPa North 2.6 km/h 10.3 km/h 63 % 0 mm
22:26 -6.4 °C -12.1 °C 34462.7 hPa NNE 15 km/h 15 km/h 52 % 0 mm
22:31 -6.5 °C -12.2 °C 34462.7 hPa NNE 15 km/h 15 km/h 52 % 0 mm
22:35 -8 °C -12 °C 34462.7 hPa NW 2.6 km/h 5.1 km/h 63 % 0 mm
22:36 -6.5 °C -12.2 °C 34462.7 hPa NNW 11.9 km/h 11.9 km/h 52 % 0 mm
22:41 -6.6 °C -12.2 °C 34496.6 hPa ENE 11.9 km/h 11.9 km/h 52 % 0 mm
22:45 -8.1 °C -11.9 °C 34462.7 hPa Calm   2.6 km/h 64 % 0 mm
22:46 -6.6 °C -12.1 °C 34496.6 hPa NNE 11.9 km/h 11.9 km/h 53 % 0 mm
22:51 -6.6 °C -12.1 °C 34496.6 hPa NNE 9 km/h 9.3 km/h 53 % 0 mm
22:55 -8.2 °C -12 °C 34462.7 hPa Calm   2.6 km/h 64 % 0 mm
22:56 -6.6 °C -12.1 °C 34496.6 hPa North 11.9 km/h 11.9 km/h 53 % 0 mm
23:01 -6.6 °C -11.9 °C 34496.6 hPa NNE 9 km/h 9 km/h 54 % 0 mm
23:05 -8.2 °C -12.1 °C 34462.7 hPa West 2.6 km/h 2.6 km/h 64 % 0 mm
23:06 -6.6 °C -11.9 °C 34496.6 hPa NNE 11.9 km/h 11.9 km/h 54 % 0 mm
23:11 -6.6 °C -11.9 °C 34496.6 hPa NNW 15 km/h 15 km/h 54 % 0 mm
23:15 -8.3 °C -12 °C 34462.7 hPa Calm   2.6 km/h 65 % 0 mm
23:16 -6.7 °C -12 °C 34496.6 hPa NNE 15 km/h 15 km/h 54 % 0 mm
23:21 -6.7 °C -11.8 °C 34496.6 hPa NNE 15 km/h 15 km/h 55 % 0 mm
23:25 -8.4 °C -11.9 °C 34462.7 hPa NW 2.6 km/h 5.1 km/h 66 % 0 mm
23:26 -6.7 °C -11.8 °C 34496.6 hPa NNE 17.9 km/h 17.9 km/h 55 % 0 mm
23:31 -6.7 °C -11.8 °C 34496.6 hPa NNE 15 km/h 15 km/h 55 % 0 mm
23:36 -6.7 °C -11.8 °C 34496.6 hPa NNE 15 km/h 15 km/h 56 % 0 mm
23:41 -6.7 °C -11.8 °C 34496.6 hPa NE 11.9 km/h 11.9 km/h 56 % 0 mm
23:45 -8.6 °C -11.9 °C 34462.7 hPa WSW 2.6 km/h 5.1 km/h 68 % 0 mm
23:46 -6.7 °C -11.8 °C 34496.6 hPa NNE 11.9 km/h 11.9 km/h 56 % 0 mm
23:51 -6.7 °C -11.8 °C 34496.6 hPa NNE 11.9 km/h 11.9 km/h 56 % 0 mm
23:55 -8.7 °C -12 °C 34428.8 hPa WSW 2.6 km/h 5.1 km/h 68 % 0 mm
23:56 -6.8 °C -11.8 °C 34496.6 hPa NE 11.9 km/h 11.9 km/h 56 % 0 mm
Meteo Sesrovires
Elogis d' Weather Underground - 3.75 mb

Guio original per  Jim McMurry - jmcmurry@mwt.net Adaptat per a la plantilla per  Wim van der Kuil - Leuven-Template.eu

Trobareu la nostra informacio del temps tambe a:

Weather Underground

AWEKAS